createdAt,value
2023-02-04T00:00:41.665Z,95.47
2023-02-04T00:03:10.002Z,95.70
2023-02-04T00:05:37.822Z,95.54
2023-02-04T00:08:06.083Z,95.42
2023-02-04T00:10:34.327Z,95.61
2023-02-04T00:13:02.452Z,95.57
2023-02-04T00:15:30.712Z,95.91
2023-02-04T00:17:59.061Z,95.66
2023-02-04T00:20:27.120Z,95.74
2023-02-04T00:22:55.326Z,95.86
2023-02-04T00:25:23.426Z,96.16
2023-02-04T00:27:54.290Z,96.19
2023-02-04T00:30:22.210Z,96.21
2023-02-04T00:32:55.280Z,96.33
2023-02-04T00:35:26.304Z,96.47
2023-02-04T00:37:54.744Z,96.58
2023-02-04T00:40:22.731Z,96.67
2023-02-04T00:42:50.411Z,96.51
2023-02-04T00:45:18.569Z,96.48
2023-02-04T00:47:46.320Z,96.71
2023-02-04T00:50:18.013Z,96.76
2023-02-04T00:52:46.363Z,96.81
2023-02-04T00:55:17.263Z,96.84
2023-02-04T00:57:47.887Z,96.74
2023-02-04T01:00:16.718Z,96.67
2023-02-04T01:02:45.179Z,96.60
2023-02-04T01:05:13.178Z,96.54
2023-02-04T01:07:41.404Z,96.43
2023-02-04T01:10:12.485Z,96.34
2023-02-04T01:12:40.611Z,96.41
2023-02-04T01:15:09.446Z,96.50
2023-02-04T01:17:37.301Z,96.33
2023-02-04T01:20:05.320Z,96.28
2023-02-04T01:22:33.537Z,96.09
2023-02-04T01:25:01.413Z,96.18
2023-02-04T01:27:41.178Z,96.72
2023-02-04T01:30:09.810Z,96.79
2023-02-04T01:32:38.133Z,96.77
2023-02-04T01:35:06.775Z,96.65
2023-02-04T01:37:34.745Z,96.33
2023-02-04T01:40:02.576Z,96.41
2023-02-04T01:42:30.996Z,96.23
2023-02-04T01:45:01.868Z,96.28
2023-02-04T01:47:31.437Z,96.55
2023-02-04T01:49:59.430Z,96.87
2023-02-04T01:52:35.910Z,96.97
2023-02-04T01:55:06.536Z,96.90
2023-02-04T01:57:35.946Z,97.00
2023-02-04T02:00:04.475Z,96.71
2023-02-04T02:02:49.052Z,96.69
2023-02-04T02:05:23.857Z,96.38
2023-02-04T02:07:54.489Z,96.51
2023-02-04T02:10:23.873Z,96.78
2023-02-04T02:12:56.108Z,96.98
2023-02-04T02:15:25.189Z,97.02
2023-02-04T02:17:55.251Z,97.00
2023-02-04T02:20:25.865Z,96.98
2023-02-04T02:23:32.980Z,96.97
2023-02-04T02:26:00.810Z,96.83
2023-02-04T02:28:29.060Z,96.82
2023-02-04T02:30:57.039Z,96.61
2023-02-04T02:33:26.544Z,96.75
2023-02-04T02:35:54.926Z,96.84
2023-02-04T02:38:25.960Z,96.64
2023-02-04T02:40:54.950Z,96.63
2023-02-04T02:43:26.054Z,97.00
2023-02-04T02:45:57.442Z,96.84
2023-02-04T02:48:25.184Z,97.11
2023-02-04T02:50:56.395Z,97.22
2023-02-04T02:53:24.973Z,97.18
2023-02-04T02:55:53.863Z,97.10
2023-02-04T02:58:32.273Z,97.08
2023-02-04T03:01:03.556Z,97.00
2023-02-04T03:03:36.645Z,97.01
2023-02-04T03:06:16.032Z,97.12
2023-02-04T03:08:45.265Z,97.11
2023-02-04T03:11:13.459Z,97.25
2023-02-04T03:13:42.737Z,97.35
2023-02-04T03:16:11.038Z,97.20
2023-02-04T03:18:39.818Z,97.06
2023-02-04T03:21:08.549Z,97.27
2023-02-04T03:23:40.758Z,97.42
2023-02-04T03:26:10.030Z,97.66
2023-02-04T03:28:42.768Z,97.68
2023-02-04T03:31:11.239Z,97.76
2023-02-04T03:33:39.087Z,97.68
2023-02-04T03:36:07.485Z,97.66
2023-02-04T03:38:35.848Z,97.20
2023-02-04T03:41:04.033Z,97.04
2023-02-04T03:43:33.932Z,97.36
2023-02-04T03:46:02.597Z,97.36
2023-02-04T03:48:30.541Z,97.53
2023-02-04T03:51:01.198Z,97.44
2023-02-04T03:53:29.603Z,97.46
2023-02-04T03:55:57.529Z,97.26
2023-02-04T03:58:25.586Z,97.17
2023-02-04T04:00:57.047Z,96.85
2023-02-04T04:03:25.200Z,96.89
2023-02-04T04:05:53.123Z,97.03
2023-02-04T04:08:20.970Z,97.13
2023-02-04T04:10:49.210Z,96.88
2023-02-04T04:13:17.126Z,96.81
2023-02-04T04:15:45.030Z,96.91
2023-02-04T04:18:13.210Z,96.93
2023-02-04T04:20:41.034Z,96.88
2023-02-04T04:23:08.760Z,96.88
2023-02-04T04:25:37.017Z,96.98
2023-02-04T04:28:05.119Z,96.53
2023-02-04T04:30:33.162Z,96.57
2023-02-04T04:33:01.620Z,96.63
2023-02-04T04:35:29.355Z,96.61
2023-02-04T04:37:57.146Z,96.48
2023-02-04T04:40:25.380Z,96.42
2023-02-04T04:42:56.235Z,96.48
2023-02-04T04:45:24.143Z,96.71
2023-02-04T04:47:52.186Z,96.80
2023-02-04T04:50:19.886Z,96.77
2023-02-04T04:52:47.870Z,96.69
2023-02-04T04:55:16.186Z,96.60
2023-02-04T04:57:43.984Z,96.58
2023-02-04T05:00:17.312Z,96.59
2023-02-04T05:02:45.574Z,96.45
2023-02-04T05:05:13.948Z,96.29
2023-02-04T05:07:41.723Z,96.26
2023-02-04T05:10:10.306Z,96.25
2023-02-04T05:12:38.355Z,96.27
2023-02-04T05:15:06.630Z,96.23
2023-02-04T05:17:34.960Z,96.21
2023-02-04T05:20:02.827Z,96.17
2023-02-04T05:22:31.934Z,96.29
2023-02-04T05:25:00.166Z,96.38
2023-02-04T05:27:28.832Z,96.43
2023-02-04T05:29:56.751Z,96.48
2023-02-04T05:32:25.017Z,96.37
2023-02-04T05:34:52.764Z,96.27
2023-02-04T05:37:21.430Z,96.18
2023-02-04T05:39:49.660Z,96.20
2023-02-04T05:42:20.232Z,96.40
2023-02-04T05:44:47.942Z,96.59
2023-02-04T05:47:20.772Z,96.81
2023-02-04T05:49:48.571Z,96.90
2023-02-04T05:52:17.115Z,96.74
2023-02-04T05:54:45.004Z,96.35
2023-02-04T05:57:12.870Z,96.49
2023-02-04T05:59:41.060Z,96.45
2023-02-04T06:02:08.869Z,96.31
2023-02-04T06:04:40.061Z,96.42
2023-02-04T06:07:07.896Z,96.39
2023-02-04T06:09:35.704Z,96.39
2023-02-04T06:12:07.131Z,96.55
2023-02-04T06:14:34.927Z,96.39
2023-02-04T06:17:03.150Z,96.39
2023-02-04T06:19:31.157Z,96.60
2023-02-04T06:21:59.043Z,96.74
2023-02-04T06:24:27.216Z,96.69
2023-02-04T06:26:55.204Z,96.28
2023-02-04T06:29:23.047Z,96.21
2023-02-04T06:31:51.469Z,96.40
2023-02-04T06:34:19.252Z,96.34
2023-02-04T06:36:47.088Z,96.30
2023-02-04T06:39:15.240Z,96.17
2023-02-04T06:41:43.092Z,96.12
2023-02-04T06:44:11.073Z,96.14
2023-02-04T06:46:39.300Z,96.03
2023-02-04T06:49:07.188Z,96.25
2023-02-04T06:51:35.075Z,95.74
2023-02-04T06:54:03.328Z,95.80
2023-02-04T06:56:34.261Z,95.81
2023-02-04T06:59:03.390Z,95.83
2023-02-04T07:01:31.953Z,95.79
2023-02-04T07:03:59.844Z,95.71
2023-02-04T07:06:27.777Z,95.27
2023-02-04T07:08:56.008Z,95.29
2023-02-04T07:11:23.847Z,94.86
2023-02-04T07:13:51.774Z,94.70
2023-02-04T07:16:19.956Z,94.92
2023-02-04T07:18:47.748Z,95.07
2023-02-04T07:21:15.552Z,94.79
2023-02-04T07:23:43.815Z,94.47
2023-02-04T07:26:11.563Z,94.36
2023-02-04T07:28:43.812Z,94.83
2023-02-04T07:31:11.896Z,94.44
2023-02-04T07:33:39.734Z,94.11
2023-02-04T07:36:08.047Z,93.72
2023-02-04T07:38:36.232Z,93.58
2023-02-04T07:41:04.174Z,93.41
2023-02-04T07:43:32.090Z,92.76
2023-02-04T07:46:00.256Z,92.25
2023-02-04T07:48:28.280Z,91.55
2023-02-04T07:50:56.059Z,91.00
2023-02-04T07:53:27.354Z,90.68
2023-02-04T07:55:54.993Z,90.53
2023-02-04T07:58:23.433Z,90.29
2023-02-04T08:00:51.564Z,90.47
2023-02-04T08:03:19.969Z,90.60
2023-02-04T08:05:47.957Z,90.64
2023-02-04T08:08:16.061Z,90.15
2023-02-04T08:10:44.981Z,89.90
2023-02-04T08:13:12.994Z,89.82
2023-02-04T08:15:43.759Z,89.23
2023-02-04T08:18:14.733Z,89.94
2023-02-04T08:20:45.342Z,89.52
2023-02-04T08:23:13.810Z,89.27
2023-02-04T08:25:41.717Z,88.59
2023-02-04T08:28:09.656Z,88.42
2023-02-04T08:30:37.974Z,87.41
2023-02-04T08:33:05.980Z,87.58
2023-02-04T08:35:33.821Z,87.65
2023-02-04T08:38:02.204Z,86.97
2023-02-04T08:40:30.343Z,87.14
2023-02-04T08:42:58.406Z,86.66
2023-02-04T08:45:26.743Z,86.23
2023-02-04T08:47:54.593Z,85.98
2023-02-04T08:50:22.476Z,85.71
2023-02-04T08:52:50.518Z,85.25
2023-02-04T08:55:18.289Z,84.88
2023-02-04T08:57:45.986Z,84.58
2023-02-04T09:00:14.884Z,84.04
2023-02-04T09:02:42.568Z,83.36
2023-02-04T09:05:10.600Z,82.59
2023-02-04T09:07:38.726Z,82.15
2023-02-04T09:10:06.948Z,81.69
2023-02-04T09:12:34.990Z,80.79
2023-02-04T09:15:03.239Z,80.52
2023-02-04T09:17:31.508Z,80.44
2023-02-04T09:19:59.358Z,81.02
2023-02-04T09:22:27.665Z,81.11
2023-02-04T09:24:55.573Z,80.77
2023-02-04T09:27:23.468Z,80.70
2023-02-04T09:29:51.741Z,80.77
2023-02-04T09:32:19.673Z,80.75
2023-02-04T09:34:47.535Z,81.05
2023-02-04T09:37:15.820Z,81.22
2023-02-04T09:39:43.674Z,81.22
2023-02-04T09:42:16.433Z,81.51
2023-02-04T09:44:45.816Z,81.57
2023-02-04T09:47:18.597Z,81.27
2023-02-04T09:49:47.747Z,81.35
2023-02-04T09:52:18.562Z,81.26
2023-02-04T09:54:47.213Z,80.66
2023-02-04T09:57:19.694Z,80.65
2023-02-04T09:59:47.900Z,80.81
2023-02-04T10:02:22.975Z,81.36
2023-02-04T10:04:57.896Z,81.46
2023-02-04T10:07:27.686Z,81.20
2023-02-04T10:09:56.307Z,81.27
2023-02-04T10:12:25.074Z,81.37
2023-02-04T10:14:52.838Z,81.52
2023-02-04T10:17:24.381Z,81.22
2023-02-04T10:19:53.276Z,80.86
2023-02-04T10:22:22.820Z,80.71
2023-02-04T10:24:50.639Z,80.41
2023-02-04T10:27:18.483Z,80.67
2023-02-04T10:29:59.739Z,80.66
2023-02-04T10:32:30.448Z,80.14
2023-02-04T10:35:01.202Z,80.29
2023-02-04T10:37:32.426Z,80.22
2023-02-04T10:40:00.694Z,80.23
2023-02-04T10:42:30.845Z,80.24
2023-02-04T10:44:59.329Z,80.48
2023-02-04T10:47:31.628Z,80.58
2023-02-04T10:50:05.972Z,80.62
2023-02-04T10:52:40.386Z,81.02
2023-02-04T10:55:13.909Z,81.12
2023-02-04T10:57:43.842Z,81.30
2023-02-04T11:00:18.364Z,81.79
2023-02-04T11:03:04.438Z,81.93
2023-02-04T11:05:34.347Z,82.20
2023-02-04T11:08:03.770Z,82.56
2023-02-04T11:10:34.100Z,82.77
2023-02-04T11:13:06.329Z,82.75
2023-02-04T11:15:49.864Z,83.16
2023-02-04T11:18:21.765Z,83.44
2023-02-04T11:20:52.340Z,83.62
2023-02-04T11:23:39.901Z,83.53
2023-02-04T11:26:22.847Z,84.33
2023-02-04T11:28:59.905Z,84.49
2023-02-04T11:31:27.668Z,84.60
2023-02-04T11:34:25.261Z,84.60
2023-02-04T11:36:58.655Z,85.17
2023-02-04T11:39:42.722Z,85.09
2023-02-04T11:42:25.512Z,85.53
2023-02-04T11:44:55.309Z,85.76
2023-02-04T11:47:25.820Z,86.42
2023-02-04T11:50:02.691Z,86.61
2023-02-04T11:52:31.041Z,86.63
2023-02-04T11:55:00.505Z,86.71
2023-02-04T11:57:28.515Z,86.62
2023-02-04T11:59:56.444Z,87.07
2023-02-04T12:02:28.807Z,87.21
2023-02-04T12:04:58.858Z,87.36
2023-02-04T12:07:29.736Z,87.90
2023-02-04T12:09:58.546Z,88.10
2023-02-04T12:12:31.044Z,88.48
2023-02-04T12:15:02.529Z,88.86
2023-02-04T12:17:31.668Z,89.37
2023-02-04T12:19:59.852Z,89.47
2023-02-04T12:22:30.511Z,89.59
2023-02-04T12:24:58.564Z,89.89
2023-02-04T12:27:26.997Z,89.99
2023-02-04T12:29:54.646Z,90.23
2023-02-04T12:32:22.331Z,90.52
2023-02-04T12:34:50.541Z,90.30
2023-02-04T12:37:18.254Z,90.56
2023-02-04T12:39:46.590Z,90.73
2023-02-04T12:42:14.790Z,90.96
2023-02-04T12:44:42.530Z,91.08
2023-02-04T12:47:10.299Z,91.31
2023-02-04T12:49:38.567Z,91.31
2023-02-04T12:52:09.739Z,91.44
2023-02-04T12:54:37.605Z,91.33
2023-02-04T12:57:08.594Z,91.45
2023-02-04T12:59:36.434Z,91.78
2023-02-04T13:02:04.420Z,92.15
2023-02-04T13:04:32.599Z,92.17
2023-02-04T13:07:01.580Z,92.30
2023-02-04T13:09:30.687Z,92.21
2023-02-04T13:12:01.634Z,92.28
2023-02-04T13:14:29.586Z,92.33
2023-02-04T13:16:57.440Z,92.47
2023-02-04T13:19:25.744Z,92.75
2023-02-04T13:21:53.719Z,93.03
2023-02-04T13:24:21.866Z,93.12
2023-02-04T13:26:50.336Z,93.17
2023-02-04T13:29:18.811Z,93.41
2023-02-04T13:31:46.688Z,93.42
2023-02-04T13:34:14.960Z,93.29
2023-02-04T13:36:45.664Z,93.58
2023-02-04T13:39:14.897Z,93.70
2023-02-04T13:41:43.439Z,93.82
2023-02-04T13:44:11.613Z,93.86
2023-02-04T13:46:42.327Z,93.81
2023-02-04T13:49:10.582Z,93.71
2023-02-04T13:51:38.443Z,93.75
2023-02-04T13:54:06.371Z,93.80
2023-02-04T13:56:34.565Z,93.96
2023-02-04T13:59:02.477Z,94.05
2023-02-04T14:01:30.573Z,94.14
2023-02-04T14:03:58.913Z,94.26
2023-02-04T14:06:33.882Z,94.38
2023-02-04T14:09:02.385Z,94.43
2023-02-04T14:11:30.744Z,94.36
2023-02-04T14:13:58.626Z,94.52
2023-02-04T14:16:26.853Z,94.55
2023-02-04T14:18:57.850Z,94.70
2023-02-04T14:21:26.294Z,94.76
2023-02-04T14:23:54.227Z,94.94
2023-02-04T14:26:22.024Z,95.06
2023-02-04T14:28:50.154Z,95.16
2023-02-04T14:31:18.605Z,95.29
2023-02-04T14:33:47.634Z,95.38
2023-02-04T14:36:18.900Z,95.27
2023-02-04T14:38:46.730Z,95.29
2023-02-04T14:41:18.532Z,95.29
2023-02-04T14:43:46.798Z,95.41
2023-02-04T14:46:14.750Z,95.50
2023-02-04T14:48:42.819Z,95.63
2023-02-04T14:51:13.064Z,95.74
2023-02-04T14:53:44.077Z,95.74
2023-02-04T14:56:17.100Z,95.65
2023-02-04T14:58:44.909Z,95.47
2023-02-04T15:01:12.858Z,95.53
2023-02-04T15:03:40.977Z,95.67
2023-02-04T15:06:08.865Z,95.59
2023-02-04T15:08:36.895Z,95.73
2023-02-04T15:11:05.318Z,95.62
2023-02-04T15:13:33.216Z,95.76
2023-02-04T15:16:01.063Z,95.98
2023-02-04T15:18:30.586Z,95.85
2023-02-04T15:21:04.876Z,96.11
2023-02-04T15:23:35.346Z,96.18
2023-02-04T15:26:03.505Z,96.32
2023-02-04T15:28:31.728Z,96.52
2023-02-04T15:31:00.084Z,96.38
2023-02-04T15:33:28.341Z,96.44
2023-02-04T15:36:15.944Z,96.41
2023-02-04T15:38:45.604Z,96.46
2023-02-04T15:41:13.461Z,96.71
2023-02-04T15:43:41.397Z,96.66
2023-02-04T15:46:09.513Z,96.72
2023-02-04T15:48:37.481Z,96.55
2023-02-04T15:51:08.127Z,96.67
2023-02-04T15:53:36.475Z,96.68
2023-02-04T15:56:05.354Z,96.67
2023-02-04T15:58:33.193Z,96.83
2023-02-04T16:01:01.785Z,96.86
2023-02-04T16:03:30.116Z,97.12
2023-02-04T16:05:57.940Z,97.18
2023-02-04T16:08:25.738Z,97.31
2023-02-04T16:10:54.620Z,97.40
2023-02-04T16:13:22.596Z,97.39
2023-02-04T16:15:50.812Z,97.44
2023-02-04T16:18:19.123Z,97.57
2023-02-04T16:20:47.122Z,97.66
2023-02-04T16:23:14.964Z,97.73
2023-02-04T16:25:43.146Z,97.79
2023-02-04T16:28:11.032Z,97.98
2023-02-04T16:30:39.659Z,98.08
2023-02-04T16:33:07.958Z,98.25
2023-02-04T16:36:00.304Z,98.15
2023-02-04T16:38:29.523Z,98.13
2023-02-04T16:40:57.496Z,98.25
2023-02-04T16:43:25.698Z,98.33
2023-02-04T16:45:56.815Z,98.15
2023-02-04T16:48:24.868Z,98.08
2023-02-04T16:50:53.517Z,98.04
2023-02-04T16:53:21.438Z,98.05
2023-02-04T16:55:49.472Z,97.86
2023-02-04T16:58:20.952Z,97.80
2023-02-04T17:00:50.665Z,97.79
2023-02-04T17:03:18.980Z,97.76
2023-02-04T17:05:46.750Z,97.89
2023-02-04T17:08:15.481Z,97.93
2023-02-04T17:11:02.257Z,97.97
2023-02-04T17:13:30.175Z,97.92
2023-02-04T17:16:01.361Z,97.93
2023-02-04T17:18:31.006Z,97.80
2023-02-04T17:20:59.971Z,97.65
2023-02-04T17:23:28.972Z,97.39
2023-02-04T17:25:56.947Z,97.51
2023-02-04T17:28:26.551Z,97.60
2023-02-04T17:30:54.390Z,97.68
2023-02-04T17:33:22.643Z,97.76
2023-02-04T17:35:50.959Z,97.72
2023-02-04T17:38:18.851Z,97.69
2023-02-04T17:40:46.918Z,97.73
2023-02-04T17:43:15.121Z,97.82
2023-02-04T17:45:43.202Z,98.00
2023-02-04T17:48:10.947Z,97.94
2023-02-04T17:50:40.392Z,97.90
2023-02-04T17:53:09.914Z,97.99
2023-02-04T17:55:39.693Z,97.91
2023-02-04T17:58:14.422Z,97.88
2023-02-04T18:00:44.932Z,97.95
2023-02-04T18:03:16.617Z,98.11
2023-02-04T18:05:47.029Z,98.15
2023-02-04T18:08:34.208Z,98.12
2023-02-04T18:11:15.912Z,98.05
2023-02-04T18:13:44.359Z,97.95
2023-02-04T18:16:25.931Z,97.88
2023-02-04T18:19:02.839Z,97.75
2023-02-04T18:21:33.968Z,97.64
2023-02-04T18:24:27.493Z,97.50
2023-02-04T18:26:59.704Z,97.20
2023-02-04T18:29:36.925Z,97.13
2023-02-04T18:32:23.253Z,97.04
2023-02-04T18:34:56.306Z,97.20
2023-02-04T18:37:33.036Z,97.23
2023-02-04T18:40:26.294Z,97.16
2023-02-04T18:43:15.612Z,97.02
2023-02-04T18:45:44.040Z,96.74
2023-02-04T18:48:21.139Z,96.94
2023-02-04T18:50:51.797Z,96.91
2023-02-04T18:53:24.854Z,96.84
2023-02-04T18:56:02.152Z,96.83
2023-02-04T18:58:37.919Z,96.72
2023-02-04T19:01:13.176Z,96.75
2023-02-04T19:03:53.204Z,96.67
2023-02-04T19:06:39.230Z,96.72
2023-02-04T19:09:13.364Z,97.08
2023-02-04T19:11:47.808Z,97.37
2023-02-04T19:14:24.561Z,97.32
2023-02-04T19:16:54.998Z,97.21
2023-02-04T19:19:32.927Z,97.12
2023-02-04T19:22:01.320Z,96.99
2023-02-04T19:24:30.041Z,97.01
2023-02-04T19:26:59.807Z,96.94
2023-02-04T19:29:39.240Z,96.73
2023-02-04T19:32:46.098Z,96.71
2023-02-04T19:35:20.481Z,96.72
2023-02-04T19:38:00.866Z,96.88
2023-02-04T19:40:31.815Z,97.10
2023-02-04T19:43:20.737Z,97.31
2023-02-04T19:45:51.317Z,97.19
2023-02-04T19:48:36.995Z,97.37
2023-02-04T19:51:18.492Z,97.08
2023-02-04T19:53:51.860Z,96.99
2023-02-04T19:56:38.853Z,97.16
2023-02-04T19:59:15.463Z,97.05
2023-02-04T20:01:43.535Z,96.92
2023-02-04T20:04:20.108Z,97.03
2023-02-04T20:06:48.343Z,96.98
2023-02-04T20:09:25.470Z,97.04
2023-02-04T20:12:06.188Z,97.00
2023-02-04T20:14:44.990Z,96.91
2023-02-04T20:17:38.667Z,96.81
2023-02-04T20:20:26.816Z,97.00
2023-02-04T20:22:59.743Z,96.77
2023-02-04T20:25:37.348Z,96.79
2023-02-04T20:28:19.241Z,96.64
2023-02-04T20:30:52.114Z,96.61
2023-02-04T20:33:31.543Z,96.75
2023-02-04T20:36:18.583Z,97.08
2023-02-04T20:38:46.676Z,97.00
2023-02-04T20:41:21.129Z,96.88
2023-02-04T20:43:52.411Z,96.75
2023-02-04T20:46:24.828Z,96.64
2023-02-04T20:48:53.083Z,96.73
2023-02-04T20:51:23.652Z,97.11
2023-02-04T20:53:58.559Z,97.20
2023-02-04T20:56:35.605Z,97.13
2023-02-04T20:59:18.906Z,97.13
2023-02-04T21:01:49.954Z,97.07
2023-02-04T21:04:36.992Z,97.01
2023-02-04T21:07:19.349Z,97.39
2023-02-04T21:09:48.498Z,97.72
2023-02-04T21:12:16.741Z,97.51
2023-02-04T21:14:44.627Z,97.71
2023-02-04T21:17:12.532Z,97.54
2023-02-04T21:19:40.630Z,97.39
2023-02-04T21:22:08.462Z,97.39
2023-02-04T21:24:36.341Z,97.58
2023-02-04T21:27:07.695Z,97.35
2023-02-04T21:29:36.449Z,97.18
2023-02-04T21:32:04.715Z,96.91
2023-02-04T21:34:32.642Z,96.94
2023-02-04T21:37:00.568Z,97.18
2023-02-04T21:39:30.114Z,97.11
2023-02-04T21:42:14.282Z,96.92
2023-02-04T21:44:42.478Z,97.05
2023-02-04T21:47:10.376Z,97.19
2023-02-04T21:49:41.278Z,97.23
2023-02-04T21:52:11.389Z,97.30
2023-02-04T21:54:39.288Z,97.35
2023-02-04T21:57:07.137Z,97.43
2023-02-04T21:59:35.158Z,97.42
2023-02-04T22:02:02.937Z,97.39
2023-02-04T22:04:31.183Z,97.42
2023-02-04T22:06:58.887Z,97.38
2023-02-04T22:09:26.627Z,97.52
2023-02-04T22:11:54.873Z,97.37
2023-02-04T22:14:32.981Z,97.43
2023-02-04T22:17:01.227Z,97.38
2023-02-04T22:19:29.095Z,97.58
2023-02-04T22:21:56.749Z,97.65
2023-02-04T22:24:28.281Z,97.67
2023-02-04T22:26:56.099Z,97.65
2023-02-04T22:29:28.939Z,97.72
2023-02-04T22:31:57.067Z,97.93
2023-02-04T22:34:25.781Z,97.89
2023-02-04T22:36:53.818Z,98.10
2023-02-04T22:39:21.729Z,98.11
2023-02-04T22:41:49.969Z,98.06
2023-02-04T22:44:17.865Z,98.22
2023-02-04T22:46:47.523Z,98.08
2023-02-04T22:49:18.974Z,97.96
2023-02-04T22:51:46.898Z,97.98
2023-02-04T22:54:15.281Z,97.99
2023-02-04T22:56:43.088Z,97.93
2023-02-04T22:59:10.893Z,98.00
2023-02-04T23:01:39.084Z,98.02
2023-02-04T23:04:06.943Z,98.03
2023-02-04T23:06:34.877Z,97.99
2023-02-04T23:09:03.132Z,97.85
2023-02-04T23:11:30.924Z,97.92
2023-02-04T23:13:58.859Z,97.98
2023-02-04T23:16:30.145Z,98.01
2023-02-04T23:18:58.552Z,98.00
2023-02-04T23:21:26.603Z,98.11
2023-02-04T23:23:54.764Z,98.20
2023-02-04T23:26:22.797Z,98.18
2023-02-04T23:28:50.733Z,98.29
2023-02-04T23:31:19.138Z,98.37
2023-02-04T23:33:47.071Z,98.42
2023-02-04T23:36:17.769Z,98.46
2023-02-04T23:38:46.006Z,98.39
2023-02-04T23:41:13.736Z,98.36
2023-02-04T23:43:41.554Z,98.32
2023-02-04T23:46:12.846Z,98.43
2023-02-04T23:48:40.647Z,98.53
2023-02-04T23:51:08.534Z,98.54
2023-02-04T23:53:36.756Z,98.48
2023-02-04T23:56:04.824Z,98.48
2023-02-04T23:58:32.599Z,98.43
